Time;durP1;ratioP1;P1;durP2;ratioP2;P2;SDS_P1;SDS_P2;PMS_P1;PMS_P2;Temp;Humidity;BMP_temperature;BMP_pressure;BME280_temperature;BME280_humidity;BME280_pressure;Samples;Min_cycle;Max_cycle;Signal;HPM_P1;HPM_P2
2023/03/22 00:01:59;;;;;;;9.27;3.72;;;;;;;8.59;100.00;100862.53;10389782;28;20038;-77
2023/03/22 00:07:00;;;;;;;18.17;4.65;;;;;;;8.61;100.00;100855.91;10373401;28;20046;-76
2023/03/22 00:12:00;;;;;;;5.95;3.63;;;;;;;8.56;100.00;100852.09;10390267;28;20046;-76
2023/03/22 00:17:01;;;;;;;8.90;4.40;;;;;;;8.58;100.00;100837.41;10357268;28;20050;-76
2023/03/22 00:22:04;;;;;;;16.73;5.30;;;;;;;8.64;100.00;100837.66;10389336;28;20052;-76
2023/03/22 00:27:05;;;;;;;13.30;4.32;;;;;;;8.67;100.00;100826.50;10373529;28;20060;-76
2023/03/22 00:32:05;;;;;;;5.07;4.50;;;;;;;8.74;100.00;100812.06;10372287;28;20037;-76
2023/03/22 00:37:06;;;;;;;9.32;3.10;;;;;;;8.76;100.00;100803.78;10389024;28;20046;-75
2023/03/22 00:42:08;;;;;;;7.72;3.25;;;;;;;8.92;100.00;100797.31;10389141;28;20289;-77
2023/03/22 00:47:09;;;;;;;13.80;4.72;;;;;;;8.94;100.00;100787.19;10372328;28;20034;-76
2023/03/22 00:52:09;;;;;;;6.20;2.80;;;;;;;8.93;100.00;100778.22;10388474;28;20058;-76
2023/03/22 00:57:11;;;;;;;7.95;3.15;;;;;;;9.04;100.00;100768.81;10387597;28;20042;-76
2023/03/22 01:02:12;;;;;;;10.93;5.00;;;;;;;9.02;100.00;100766.28;10387251;28;20033;-76
2023/03/22 01:07:16;;;;;;;20.42;4.50;;;;;;;9.02;100.00;100752.78;10387521;28;20370;-76
2023/03/22 01:12:17;;;;;;;8.90;3.75;;;;;;;8.95;100.00;100749.16;10370660;28;20042;-76
2023/03/22 01:17:18;;;;;;;8.23;4.10;;;;;;;8.99;100.00;100742.34;10386961;28;20053;-75
2023/03/22 01:22:18;;;;;;;9.38;3.80;;;;;;;9.03;100.00;100713.09;10387305;28;20044;-77
2023/03/22 01:27:19;;;;;;;13.05;3.05;;;;;;;9.01;100.00;100713.28;10371281;28;20127;-75
2023/03/22 01:32:19;;;;;;;8.88;2.75;;;;;;;9.05;100.00;100711.03;10386935;28;20479;-76
2023/03/22 01:37:24;;;;;;;15.98;3.75;;;;;;;9.11;100.00;100704.03;10386860;28;20160;-76
2023/03/22 01:42:25;;;;;;;12.63;3.65;;;;;;;9.23;100.00;100692.53;10370365;28;20034;-75
2023/03/22 01:47:25;;;;;;;9.07;4.18;;;;;;;9.38;100.00;100686.19;10386065;28;20037;-76
2023/03/22 01:52:25;;;;;;;6.32;2.95;;;;;;;9.54;100.00;100684.06;10385756;28;20041;-76
2023/03/22 01:57:26;;;;;;;20.33;4.22;;;;;;;9.55;100.00;100665.97;10369099;28;20034;-76
2023/03/22 02:02:29;;;;;;;14.50;5.88;;;;;;;9.65;100.00;100666.47;10368426;28;20060;-76
2023/03/22 02:07:30;;;;;;;6.60;3.55;;;;;;;9.64;100.00;100656.69;10384743;28;20394;-77
2023/03/22 02:12:43;;;;;;;19.88;4.15;;;;;;;9.66;100.00;100659.19;10369041;28;20056;-77
2023/03/22 02:18:15;;;;;;;14.88;5.95;;;;;;;9.61;100.00;100631.91;10370251;28;20492;-77
2023/03/22 02:23:52;;;;;;;9.95;4.72;;;;;;;9.59;100.00;100647.50;10384246;28;20037;-76
2023/03/22 02:29:30;;;;;;;11.35;5.15;;;;;;;9.54;100.00;100643.53;10368294;28;20061;-77
2023/03/22 02:34:45;;;;;;;11.38;4.97;;;;;;;9.57;100.00;100644.13;10368659;28;20134;-76
2023/03/22 02:40:04;;;;;;;12.10;7.95;;;;;;;9.54;100.00;100639.97;10368680;28;20037;-76
2023/03/22 02:45:10;;;;;;;10.82;6.35;;;;;;;9.49;100.00;100626.22;10370058;28;20033;-76
2023/03/22 02:50:29;;;;;;;23.85;5.97;;;;;;;9.37;100.00;100628.59;10384481;28;20034;-75
2023/03/22 02:55:58;;;;;;;6.22;5.07;;;;;;;9.39;100.00;100617.63;10369734;28;20054;-76
2023/03/22 03:01:01;;;;;;;16.88;5.97;;;;;;;9.32;100.00;100621.09;10369280;28;20034;-76
2023/03/22 03:06:07;;;;;;;11.05;7.72;;;;;;;9.31;100.00;100614.00;10384261;28;20482;-76
2023/03/22 03:11:07;;;;;;;15.63;7.33;;;;;;;9.28;100.00;100608.16;10384755;28;20069;-73
2023/03/22 03:16:12;;;;;;;16.35;7.90;;;;;;;9.30;100.00;100595.31;10378930;28;20058;-73
2023/03/22 03:21:34;;;;;;;11.18;6.32;;;;;;;9.21;100.00;100596.47;10396094;28;20038;-72
2023/03/22 03:26:56;;;;;;;7.97;7.15;;;;;;;9.29;100.00;100590.94;10379879;28;20385;-72
2023/03/22 03:32:07;;;;;;;7.50;6.75;;;;;;;9.26;100.00;100588.63;10379712;28;20041;-73
2023/03/22 03:37:10;;;;;;;11.60;6.05;;;;;;;9.24;100.00;100582.56;10380836;28;20078;-72
2023/03/22 03:42:11;;;;;;;11.27;5.63;;;;;;;9.21;100.00;100596.47;10395311;28;20048;-72
2023/03/22 03:47:11;;;;;;;7.85;7.05;;;;;;;9.28;100.00;100583.84;10378140;28;20026;-72
2023/03/22 03:52:12;;;;;;;16.05;8.52;;;;;;;9.34;100.00;100588.47;10395385;28;20034;-73
2023/03/22 03:57:12;;;;;;;14.52;7.95;;;;;;;9.34;100.00;100593.88;10393969;28;20128;-72
2023/03/22 04:02:13;;;;;;;13.43;8.07;;;;;;;9.24;100.00;100582.56;10379305;28;20050;-72
2023/03/22 04:07:13;;;;;;;8.23;6.50;;;;;;;9.23;100.00;100572.81;10378908;28;20045;-71
2023/03/22 04:12:13;;;;;;;8.88;7.00;;;;;;;9.25;100.00;100571.59;10380827;28;20061;-72
2023/03/22 04:17:14;;;;;;;13.43;5.85;;;;;;;9.31;100.00;100569.94;10377194;28;20104;-73
2023/03/22 04:22:17;;;;;;;8.73;6.30;;;;;;;9.29;100.00;100553.94;10377348;28;20107;-72
2023/03/22 04:27:18;;;;;;;21.85;7.38;;;;;;;9.28;100.00;100560.38;10377998;28;20064;-72
2023/03/22 04:32:21;;;;;;;9.00;6.95;;;;;;;9.28;100.00;100556.81;10395048;28;20425;-72
2023/03/22 04:37:25;;;;;;;18.02;6.90;;;;;;;9.24;100.00;100553.69;10377372;28;20030;-73
2023/03/22 04:42:26;;;;;;;8.50;5.78;;;;;;;9.20;100.00;100551.59;10392697;28;20042;-73
2023/03/22 04:47:26;;;;;;;10.82;5.47;;;;;;;9.31;100.00;100548.31;10393563;28;20038;-72
2023/03/22 04:52:26;;;;;;;9.35;5.65;;;;;;;9.37;100.00;100544.00;10394287;28;20145;-73
2023/03/22 04:57:27;;;;;;;10.52;4.43;;;;;;;9.38;100.00;100543.81;10382192;28;20052;-73
2023/03/22 05:02:27;;;;;;;8.00;5.63;;;;;;;9.53;100.00;100541.81;10383825;28;20537;-73
2023/03/22 05:07:28;;;;;;;5.13;3.28;;;;;;;9.43;100.00;100529.69;10376306;28;20034;-73
2023/03/22 05:12:28;;;;;;;9.07;4.93;;;;;;;9.55;100.00;100528.94;10373809;28;20065;-73
2023/03/22 05:17:29;;;;;;;14.75;5.30;;;;;;;9.53;100.00;100528.28;10377324;28;20049;-73
2023/03/22 05:22:29;;;;;;;12.65;5.45;;;;;;;9.40;100.00;100530.09;10374119;28;20038;-73
2023/03/22 05:27:30;;;;;;;8.52;3.60;;;;;;;9.37;100.00;100519.69;10375100;28;20045;-73
2023/03/22 05:32:30;;;;;;;5.35;4.38;;;;;;;9.41;100.00;100502.03;10358253;28;20037;-77
2023/03/22 05:37:31;;;;;;;6.43;2.60;;;;;;;9.45;100.00;100496.03;10389123;28;20091;-74
2023/03/22 05:42:31;;;;;;;6.05;3.38;;;;;;;9.43;100.00;100497.28;10356575;28;20069;-73
2023/03/22 05:47:32;;;;;;;5.30;2.70;;;;;;;9.48;100.00;100503.75;10374353;28;20045;-73
2023/03/22 05:52:33;;;;;;;7.15;3.60;;;;;;;9.35;100.00;100509.09;10355931;28;20034;-78
2023/03/22 05:57:33;;;;;;;7.47;2.92;;;;;;;9.30;100.00;100506.13;10372318;28;20040;-72
2023/03/22 06:02:34;;;;;;;6.35;3.03;;;;;;;9.49;100.00;100504.56;10374070;28;20120;-74
2023/03/22 06:07:34;;;;;;;7.30;3.42;;;;;;;9.47;100.00;100504.75;10376030;28;20398;-75
2023/03/22 06:12:35;;;;;;;14.38;3.65;;;;;;;9.51;100.00;100500.66;10374440;28;20117;-75
2023/03/22 06:17:35;;;;;;;2.60;2.17;;;;;;;9.66;100.00;100502.38;10373610;28;20061;-74
2023/03/22 06:22:36;;;;;;;8.15;4.18;;;;;;;9.63;100.00;100494.66;10372773;28;20042;-75
2023/03/22 06:27:37;;;;;;;5.38;2.58;;;;;;;9.64;100.00;100502.59;10389075;28;20030;-75
2023/03/22 06:32:37;;;;;;;11.57;3.28;;;;;;;9.64;100.00;100499.88;10373267;28;20038;-74
2023/03/22 06:37:37;;;;;;;7.20;3.72;;;;;;;9.63;100.00;100490.06;10389101;28;20038;-75
2023/03/22 06:42:38;;;;;;;9.32;3.05;;;;;;;9.57;100.00;100492.75;10377240;28;20422;-75
2023/03/22 06:47:38;;;;;;;5.18;3.45;;;;;;;9.77;100.00;100491.00;10379831;28;20049;-74
2023/03/22 06:52:39;;;;;;;11.32;3.53;;;;;;;9.84;100.00;100493.72;10381558;28;20069;-76
2023/03/22 06:57:39;;;;;;;9.27;3.20;;;;;;;10.04;100.00;100513.53;10381817;28;20488;-75
2023/03/22 07:02:40;;;;;;;14.57;3.33;;;;;;;10.00;100.00;100483.34;10380557;28;20041;-74
2023/03/22 07:07:40;;;;;;;7.20;2.60;;;;;;;10.09;100.00;100489.41;10381058;28;20377;-76
2023/03/22 07:12:41;;;;;;;13.40;2.85;;;;;;;10.08;100.00;100481.50;10380933;28;20196;-75
2023/03/22 07:17:41;;;;;;;3.15;2.47;;;;;;;10.23;100.00;100487.56;10384858;28;20446;-74
2023/03/22 07:22:41;;;;;;;7.88;2.65;;;;;;;10.21;100.00;100498.63;10388871;28;20038;-75
2023/03/22 07:27:42;;;;;;;10.65;4.30;;;;;;;10.19;100.00;100506.09;10389908;28;20034;-74
2023/03/22 07:32:42;;;;;;;6.43;2.63;;;;;;;10.13;100.00;100498.78;10379189;28;20034;-75
2023/03/22 07:37:44;;;;;;;8.32;3.35;;;;;;;10.05;100.00;100493.59;10379923;28;20120;-74
2023/03/22 07:42:47;;;;;;;9.98;3.70;;;;;;;10.11;100.00;100500.84;10377520;28;20030;-75
2023/03/22 07:47:47;;;;;;;14.77;4.28;;;;;;;9.89;100.00;100492.06;10378001;28;20450;-75
2023/03/22 07:52:48;;;;;;;7.60;3.58;;;;;;;9.80;100.00;100477.06;10378845;28;20041;-76
2023/03/22 07:57:48;;;;;;;17.92;2.70;;;;;;;9.66;100.00;100494.25;10380609;28;20068;-76
2023/03/22 08:02:49;;;;;;;12.75;3.30;;;;;;;9.71;100.00;100498.03;10378181;28;20116;-77
2023/03/22 08:07:50;;;;;;;6.20;2.78;;;;;;;9.68;100.00;100505.72;10377788;28;20081;-77
2023/03/22 08:12:50;;;;;;;6.05;4.15;;;;;;;9.49;100.00;100512.69;10380241;28;20050;-79
2023/03/22 08:17:51;;;;;;;8.05;3.63;;;;;;;9.32;100.00;100504.09;10382287;28;20061;-79
2023/03/22 08:22:53;;;;;;;11.88;2.97;;;;;;;9.36;100.00;100486.44;10385426;28;20096;-78
2023/03/22 08:27:53;;;;;;;9.85;3.97;;;;;;;9.18;100.00;100488.81;10377310;28;20068;-78
2023/03/22 08:32:53;;;;;;;9.35;2.50;;;;;;;9.20;100.00;100492.16;10380042;28;20129;-79
2023/03/22 08:37:54;;;;;;;18.58;3.92;;;;;;;9.26;100.00;100492.19;10385193;28;20443;-79
2023/03/22 08:42:55;;;;;;;25.63;4.55;;;;;;;9.31;100.00;100492.41;10378280;28;20127;-79
2023/03/22 08:47:56;;;;;;;6.53;2.78;;;;;;;9.23;100.00;100491.75;10378577;28;20057;-78
2023/03/22 08:52:56;;;;;;;16.92;3.58;;;;;;;9.20;100.00;100481.34;10379819;28;20030;-78
2023/03/22 08:57:57;;;;;;;7.47;3.75;;;;;;;9.30;100.00;100482.66;10378350;28;20042;-80
2023/03/22 09:02:58;;;;;;;13.95;3.60;;;;;;;9.30;100.00;100489.94;10376969;28;20117;-78
2023/03/22 09:07:58;;;;;;;13.82;4.07;;;;;;;9.18;100.00;100495.03;10374788;28;20040;-78
2023/03/22 09:12:59;;;;;;;17.10;3.75;;;;;;;9.18;100.00;100481.53;10380699;28;20042;-79
2023/03/22 09:18:00;;;;;;;6.65;4.03;;;;;;;9.20;100.00;100492.97;10377238;28;20058;-77
2023/03/22 09:23:00;;;;;;;12.52;4.55;;;;;;;9.34;100.00;100491.19;10376299;28;20042;-79
2023/03/22 09:28:01;;;;;;;7.32;3.38;;;;;;;9.39;100.00;100482.50;10393273;28;20057;-77
2023/03/22 09:33:02;;;;;;;11.50;3.03;;;;;;;9.39;100.00;100474.38;10375876;28;20034;-77
2023/03/22 09:38:04;;;;;;;12.70;3.55;;;;;;;9.39;100.00;100482.50;10379893;28;20034;-77
2023/03/22 09:43:06;;;;;;;11.93;3.75;;;;;;;9.47;100.00;100488.53;10407050;28;20054;-77
2023/03/22 09:48:34;;;;;;;9.88;3.53;;;;;;;9.51;100.00;100489.84;10388010;28;20494;-76
2023/03/22 09:53:35;;;;;;;10.00;2.92;;;;;;;9.40;100.00;100503.91;10375986;28;20365;-75
2023/03/22 09:58:55;;;;;;;12.68;5.60;;;;;;;9.32;100.00;100486.00;10378846;28;20034;-76
2023/03/22 10:04:03;;;;;;;10.18;4.50;;;;;;;9.39;100.00;100468.97;10375633;28;20037;-75
2023/03/22 10:09:21;;;;;;;8.70;4.70;;;;;;;9.45;100.00;100501.44;10389390;28;20034;-76
2023/03/22 10:14:47;;;;;;;10.02;2.70;;;;;;;9.54;100.00;100488.59;10387398;28;20525;-75
2023/03/22 10:19:52;;;;;;;14.43;3.72;;;;;;;9.64;100.00;100480.94;10386120;28;20168;-74
2023/03/22 10:24:52;;;;;;;9.05;4.55;;;;;;;9.58;100.00;100472.81;10374482;28;20039;-75
2023/03/22 10:30:00;;;;;;;9.35;3.42;;;;;;;9.76;100.00;100448.75;10356336;28;20034;-75
2023/03/22 10:35:00;;;;;;;22.33;4.22;;;;;;;9.95;100.00;100474.19;10388292;28;20073;-74
2023/03/22 10:40:05;;;;;;;21.50;4.13;;;;;;;9.93;100.00;100462.75;10371858;28;20084;-74
2023/03/22 10:45:12;;;;;;;7.22;3.35;;;;;;;9.96;100.00;100455.06;10387652;28;20026;-75
2023/03/22 10:50:14;;;;;;;;;;;;;;;10.00;100.00;100437.38;10372237;28;20034;-73
2023/03/22 10:55:15;;;;;;;15.13;4.50;;;;;;;10.26;100.00;100441.19;10371598;28;19921;-73
2023/03/22 11:00:16;;;;;;;6.97;2.90;;;;;;;10.41;100.00;100452.66;10387687;28;20030;-73
2023/03/22 11:05:27;;;;;;;11.00;3.97;;;;;;;10.36;100.00;100452.44;10374449;28;20034;-72
2023/03/22 11:10:31;;;;;;;7.57;3.33;;;;;;;10.35;100.00;100464.31;10372941;28;20029;-72
2023/03/22 11:15:33;;;;;;;7.45;3.65;;;;;;;10.22;100.00;100496.72;10371488;28;20141;-72
2023/03/22 11:20:33;;;;;;;6.47;2.85;;;;;;;10.14;100.00;100499.63;10371963;28;20030;-71
2023/03/22 11:25:35;;;;;;;10.80;4.05;;;;;;;10.21;100.00;100500.47;10372570;28;20112;-70
2023/03/22 11:30:35;;;;;;;14.15;4.20;;;;;;;10.21;100.00;100503.16;10387123;28;20127;-72
2023/03/22 11:35:37;;;;;;;8.77;4.53;;;;;;;10.27;100.00;100498.84;10393128;28;20070;-71
2023/03/22 11:40:37;;;;;;;9.68;4.47;;;;;;;10.24;100.00;100483.81;10395957;28;20029;-71
2023/03/22 11:45:40;;;;;;;6.90;2.95;;;;;;;10.34;100.00;100503.25;10395302;28;20038;-70
2023/03/22 11:50:41;;;;;;;16.73;4.10;;;;;;;10.41;100.00;100506.78;10362300;28;20092;-70
2023/03/22 11:55:43;;;;;;;14.93;4.55;;;;;;;10.46;100.00;100493.47;10379867;28;20500;-69
2023/03/22 12:00:43;;;;;;;4.05;3.20;;;;;;;10.48;100.00;100488.69;10381123;28;20046;-71
2023/03/22 12:05:45;;;;;;;11.75;3.85;;;;;;;10.57;100.00;100493.91;10386256;28;20034;-71
2023/03/22 12:10:48;;;;;;;5.65;3.67;;;;;;;10.79;100.00;100495.34;10365710;28;20096;-69
2023/03/22 12:15:53;;;;;;;14.52;5.13;;;;;;;10.94;100.00;100482.44;10361815;28;20084;-70
2023/03/22 12:20:57;;;;;;;7.55;3.60;;;;;;;11.08;100.00;100475.13;10360370;28;20064;-71
2023/03/22 12:26:02;;;;;;;8.65;5.20;;;;;;;10.93;100.00;100463.66;10393236;28;20458;-72
2023/03/22 12:31:03;;;;;;;6.18;3.95;;;;;;;11.00;100.00;100461.78;10378424;28;20038;-70
2023/03/22 12:36:04;;;;;;;12.48;3.83;;;;;;;11.01;100.00;100466.16;10392909;28;20508;-71
2023/03/22 12:41:08;;;;;;;5.35;2.72;;;;;;;11.11;100.00;100469.28;10375503;28;20496;-70
2023/03/22 12:46:14;;;;;;;3.35;3.15;;;;;;;11.20;100.00;100469.88;10375087;28;20111;-69
2023/03/22 12:51:14;;;;;;;7.20;4.07;;;;;;;11.37;100.00;100470.25;10376179;28;20569;-70
2023/03/22 12:56:19;;;;;;;4.18;2.95;;;;;;;11.51;100.00;100469.13;10377092;28;20026;-70
2023/03/22 13:01:45;;;;;;;6.97;3.50;;;;;;;11.48;100.00;100479.59;10377264;28;20466;-71
2023/03/22 13:06:45;;;;;;;15.27;2.72;;;;;;;11.33;100.00;100477.16;10369187;28;20125;-70
2023/03/22 13:11:47;;;;;;;11.15;3.10;;;;;;;11.40;100.00;100497.75;10377324;28;20461;-70
2023/03/22 13:16:50;;;;;;;6.63;3.53;;;;;;;11.55;100.00;100474.97;10389416;28;20132;-70
2023/03/22 13:22:00;;;;;;;6.78;2.85;;;;;;;11.55;100.00;100469.53;10375302;28;20045;-71
2023/03/22 13:27:00;;;;;;;9.02;3.60;;;;;;;11.55;100.00;100458.69;10389601;28;20037;-70
2023/03/22 13:32:06;;;;;;;10.57;4.30;;;;;;;11.59;100.00;100459.94;10376006;28;20041;-70
2023/03/22 13:37:16;;;;;;;10.13;5.40;;;;;;;11.75;100.00;100464.88;10375810;28;20454;-71
2023/03/22 13:42:19;;;;;;;3.78;3.38;;;;;;;11.71;100.00;100463.66;10374496;28;20470;-71
2023/03/22 13:47:32;;;;;;;17.05;5.70;;;;;;;11.78;100.00;100447.34;10374200;28;20037;-70
2023/03/22 13:52:43;;;;;;;4.78;3.97;;;;;;;11.72;100.00;100438.19;10373711;28;20034;-69
2023/03/22 13:57:45;;;;;;;11.63;5.28;;;;;;;11.80;100.00;100446.06;10356874;28;20025;-70
2023/03/22 14:02:47;;;;;;;7.18;4.80;;;;;;;11.86;100.00;100434.38;10373894;28;20041;-70
2023/03/22 14:07:58;;;;;;;5.35;3.80;;;;;;;11.86;100.00;100434.38;10388936;28;20482;-69
2023/03/22 14:13:22;;;;;;;6.22;4.22;;;;;;;11.66;100.00;100428.19;10373239;28;20560;-70
2023/03/22 14:18:30;;;;;;;5.15;3.05;;;;;;;11.56;100.00;100425.13;10372440;28;20064;-71
2023/03/22 14:23:43;;;;;;;5.32;3.95;;;;;;;11.47;100.00;100412.84;10395972;28;20046;-70
2023/03/22 14:28:43;;;;;;;4.90;3.83;;;;;;;11.50;100.00;100407.00;10395076;28;20033;-70
2023/03/22 14:33:44;;;;;;;4.88;4.50;;;;;;;11.32;100.00;100378.69;10373419;28;20073;-72
2023/03/22 14:38:46;;;;;;;6.75;3.67;;;;;;;11.22;100.00;100410.03;10371651;28;20100;-72
2023/03/22 14:43:48;;;;;;;6.55;4.85;;;;;;;11.24;100.00;100403.34;10387888;28;20045;-72
2023/03/22 14:48:53;;;;;;;8.35;5.05;;;;;;;11.21;100.00;100394.81;10374517;28;20081;-70
2023/03/22 14:53:53;;;;;;;6.82;5.15;;;;;;;11.14;100.00;100414.66;10387461;28;20030;-71
2023/03/22 14:58:55;;;;;;;7.63;5.70;;;;;;;11.13;100.00;100401.28;10372595;28;20062;-72
2023/03/22 15:04:01;;;;;;;8.48;5.15;;;;;;;11.05;100.00;100406.97;10387802;28;20060;-71
2023/03/22 15:09:10;;;;;;;12.40;6.03;;;;;;;10.98;100.00;100396.16;10393727;28;20040;-73
2023/03/22 15:14:11;;;;;;;15.35;5.93;;;;;;;11.03;100.00;100385.50;10380039;28;20132;-72
2023/03/22 15:19:12;;;;;;;10.25;6.97;;;;;;;10.93;100.00;100385.94;10394810;28;20049;-73
2023/03/22 15:24:25;;;;;;;11.27;8.20;;;;;;;10.98;100.00;100387.19;10379657;28;20061;-71
2023/03/22 15:29:27;;;;;;;11.85;8.52;;;;;;;10.99;100.00;100381.53;10378801;28;20489;-72
2023/03/22 15:34:31;;;;;;;11.43;9.75;;;;;;;10.96;100.00;100394.69;10395189;28;20465;-73
2023/03/22 15:39:36;;;;;;;17.25;10.70;;;;;;;10.88;100.00;100396.59;10379554;28;20042;-75
2023/03/22 15:44:37;;;;;;;16.45;13.52;;;;;;;10.71;100.00;100379.09;10383641;28;20041;-76
2023/03/22 15:49:39;;;;;;;16.70;14.85;;;;;;;10.75;100.00;100374.94;10382371;28;20042;-79
2023/03/22 15:55:04;;;;;;;25.30;13.25;;;;;;;10.76;100.00;100378.50;10380627;28;20026;-78
2023/03/22 16:00:19;;;;;;;13.80;12.40;;;;;;;10.81;100.00;100363.25;10382557;28;20045;-77
2023/03/22 16:05:19;;;;;;;14.13;12.32;;;;;;;10.74;100.00;100358.91;10385635;28;20045;-79
2023/03/22 16:10:20;;;;;;;13.80;10.68;;;;;;;10.79;100.00;100335.56;10380346;28;20034;-78
2023/03/22 16:15:23;;;;;;;16.95;10.18;;;;;;;10.70;100.00;100343.06;10378790;28;20129;-79
2023/03/22 16:20:25;;;;;;;9.63;8.82;;;;;;;10.67;100.00;100343.50;10386693;28;20041;-78
2023/03/22 16:25:25;;;;;;;10.75;9.65;;;;;;;10.67;100.00;100324.53;10400889;28;20443;-78
2023/03/22 16:30:27;;;;;;;12.02;8.38;;;;;;;10.70;100.00;100326.00;10395355;28;20069;-76
2023/03/22 16:35:29;;;;;;;9.07;7.93;;;;;;;10.68;100.00;100328.06;10379059;28;20034;-76
2023/03/22 16:40:30;;;;;;;7.60;6.90;;;;;;;10.70;100.00;100328.72;10399546;28;20038;-74
2023/03/22 16:45:32;;;;;;;9.13;7.97;;;;;;;10.73;100.00;100327.47;10397378;28;20033;-75
2023/03/22 16:50:33;;;;;;;14.02;11.00;;;;;;;10.78;100.00;100341.19;10394663;28;20501;-76
2023/03/22 16:55:34;;;;;;;10.23;9.25;;;;;;;10.78;100.00;100342.00;10378869;28;20105;-74
2023/03/22 17:00:35;;;;;;;12.05;10.95;;;;;;;10.81;100.00;100349.69;10378915;28;20091;-75
2023/03/22 17:05:36;;;;;;;12.30;9.88;;;;;;;10.87;100.00;100353.44;10393540;28;20110;-75
2023/03/22 17:10:36;;;;;;;10.05;9.05;;;;;;;10.84;100.00;100346.56;10394063;28;20032;-74
2023/03/22 17:15:38;;;;;;;15.25;10.48;;;;;;;10.79;100.00;100357.22;10378851;28;20089;-74
2023/03/22 17:20:39;;;;;;;16.90;11.38;;;;;;;10.89;100.00;100363.03;10360466;28;20394;-74
2023/03/22 17:25:41;;;;;;;9.13;8.23;;;;;;;10.89;100.00;100346.78;10377557;28;20034;-75
2023/03/22 17:30:42;;;;;;;13.07;10.23;;;;;;;10.82;100.00;100339.72;10376659;28;20037;-76
2023/03/22 17:35:43;;;;;;;10.93;9.75;;;;;;;10.76;100.00;100357.66;10390779;28;20038;-77
2023/03/22 17:40:43;;;;;;;12.50;9.50;;;;;;;10.75;100.00;100345.13;10377565;28;20451;-77
2023/03/22 17:45:44;;;;;;;12.27;11.13;;;;;;;10.75;100.00;100345.13;10375333;28;20441;-77
2023/03/22 17:50:44;;;;;;;16.15;13.00;;;;;;;10.68;100.00;100347.03;10377835;28;20095;-76
2023/03/22 17:55:45;;;;;;;14.27;12.80;;;;;;;10.67;100.00;100334.56;10377774;28;20458;-75
2023/03/22 18:00:45;;;;;;;16.08;14.38;;;;;;;10.67;100.00;100332.66;10381550;28;20038;-76
2023/03/22 18:05:46;;;;;;;17.63;15.93;;;;;;;10.68;100.00;100307.25;10373997;28;20033;-75
2023/03/22 18:10:46;;;;;;;27.10;17.88;;;;;;;10.74;100.00;100302.84;10373344;28;20115;-75
2023/03/22 18:15:47;;;;;;;14.07;11.77;;;;;;;10.74;100.00;100285.78;10391234;28;20142;-76
2023/03/22 18:20:48;;;;;;;14.30;12.90;;;;;;;10.71;100.00;100284.31;10389488;28;20041;-75
2023/03/22 18:25:56;;;;;;;20.45;14.93;;;;;;;10.74;100.00;100289.31;10374350;28;20038;-75
2023/03/22 18:30:56;;;;;;;18.45;15.48;;;;;;;10.73;100.00;100305.78;10361721;28;20400;-75
2023/03/22 18:35:57;;;;;;;13.52;11.35;;;;;;;10.76;100.00;100287.25;10375315;28;20034;-76
2023/03/22 18:40:57;;;;;;;22.60;14.38;;;;;;;10.69;100.00;100289.97;10389183;28;20121;-75
2023/03/22 18:45:57;;;;;;;19.65;14.07;;;;;;;10.63;100.00;100273.75;10381970;28;20081;-78
2023/03/22 18:50:59;;;;;;;15.27;13.00;;;;;;;10.59;100.00;100296.84;10382287;28;20038;-79
2023/03/22 18:56:00;;;;;;;21.13;12.25;;;;;;;10.56;100.00;100287.31;10393286;28;20068;-81
2023/03/22 19:01:02;;;;;;;17.38;11.02;;;;;;;10.60;100.00;100277.72;10384470;28;20422;-79
2023/03/22 19:06:08;;;;;;;19.35;11.98;;;;;;;10.60;100.00;100277.72;10422694;28;20030;-79
2023/03/22 19:11:08;;;;;;;17.63;12.27;;;;;;;10.63;100.00;100269.16;10398796;28;20040;-79
2023/03/22 19:16:10;;;;;;;16.02;12.65;;;;;;;10.62;100.00;100274.78;10393662;28;20141;-80
2023/03/22 19:21:10;;;;;;;15.25;11.05;;;;;;;10.58;100.00;100274.38;10405567;28;20437;-83
2023/03/22 19:26:11;;;;;;;21.08;13.57;;;;;;;10.47;100.00;100262.34;10385671;28;20073;-79
2023/03/22 19:31:11;;;;;;;15.25;9.75;;;;;;;10.43;100.00;100266.50;10386140;28;20484;-77
2023/03/22 19:36:12;;;;;;;14.73;9.45;;;;;;;10.49;100.00;100262.09;10393817;28;20038;-77
2023/03/22 19:41:12;;;;;;;10.63;9.52;;;;;;;10.55;100.00;100268.56;10379451;28;20397;-78
2023/03/22 19:51:35;;;;;;;23.92;11.98;;;;;;;10.61;100.00;100256.88;10365262;28;20072;-77
2023/03/22 19:56:38;;;;;;;19.48;10.60;;;;;;;10.62;100.00;100261.22;10393710;28;20482;-78
2023/03/22 20:01:38;;;;;;;15.30;10.25;;;;;;;10.60;100.00;100256.03;10394636;28;20462;-79
2023/03/22 20:06:40;;;;;;;24.45;11.80;;;;;;;10.68;100.00;100244.13;10394857;28;20072;-78
2023/03/22 20:11:40;;;;;;;20.50;10.77;;;;;;;10.65;100.00;100215.59;10379251;28;20049;-79
2023/03/22 20:16:41;;;;;;;13.43;10.25;;;;;;;10.64;100.00;100213.13;10378096;28;20053;-80
2023/03/22 20:21:41;;;;;;;12.50;11.15;;;;;;;10.71;100.00;100206.63;10389714;28;20469;-79
2023/03/22 20:26:42;;;;;;;15.70;11.15;;;;;;;10.69;100.00;100216.84;10379377;28;20046;-79
2023/03/22 20:31:42;;;;;;;22.48;11.02;;;;;;;10.68;100.00;100211.63;10378128;28;20048;-78
2023/03/22 20:36:43;;;;;;;22.08;10.93;;;;;;;10.68;100.00;100204.34;10379934;28;20033;-78
2023/03/22 20:41:43;;;;;;;12.88;11.38;;;;;;;10.78;100.00;100192.22;10393410;28;20473;-77
2023/03/22 20:46:44;;;;;;;20.00;9.73;;;;;;;10.73;100.00;100182.06;10392433;28;20084;-77
2023/03/22 20:51:44;;;;;;;15.35;8.00;;;;;;;10.75;100.00;100187.25;10376017;28;20453;-77
2023/03/22 20:56:45;;;;;;;7.45;6.75;;;;;;;10.81;100.00;100175.53;10378199;28;20033;-76
2023/03/22 21:01:45;;;;;;;6.75;6.05;;;;;;;10.75;100.00;100188.06;10378472;28;20045;-75
2023/03/22 21:06:47;;;;;;;12.02;9.70;;;;;;;10.78;100.00;100179.50;10376875;28;20036;-76
2023/03/22 21:11:48;;;;;;;8.45;7.45;;;;;;;10.82;100.00;100175.34;10384598;28;20492;-73
2023/03/22 21:16:48;;;;;;;14.95;8.50;;;;;;;10.81;100.00;100176.38;10360294;28;20060;-74
2023/03/22 21:21:49;;;;;;;9.15;8.10;;;;;;;10.85;100.00;100166.78;10393899;28;20409;-73
2023/03/22 21:26:49;;;;;;;7.88;7.15;;;;;;;10.87;100.00;100161.94;10386651;28;20069;-75
2023/03/22 21:31:50;;;;;;;8.43;7.57;;;;;;;10.87;100.00;100164.66;10386176;28;20038;-73
2023/03/22 21:36:51;;;;;;;11.00;7.93;;;;;;;10.87;100.00;100172.78;10379165;28;20040;-72
2023/03/22 21:41:52;;;;;;;18.58;9.60;;;;;;;10.90;100.00;100185.91;10392185;28;20042;-74
2023/03/22 21:46:57;;;;;;;15.48;8.23;;;;;;;10.82;100.00;100163.69;10376695;28;20532;-74
2023/03/22 21:51:59;;;;;;;15.85;10.18;;;;;;;10.80;100.00;100171.19;10375822;28;20133;-73
2023/03/22 21:56:59;;;;;;;10.32;7.47;;;;;;;10.82;100.00;100156.38;10374182;28;20117;-73
2023/03/22 22:02:00;;;;;;;17.00;9.25;;;;;;;10.91;100.00;100162.34;10390866;28;20041;-74
2023/03/22 22:07:01;;;;;;;8.50;7.07;;;;;;;10.82;100.00;100150.13;10376256;28;20122;-72
2023/03/22 22:12:02;;;;;;;11.15;7.68;;;;;;;10.85;100.00;100139.69;10375162;28;20038;-72
2023/03/22 22:17:03;;;;;;;13.63;7.55;;;;;;;10.91;100.00;100128.00;10373944;28;20401;-73
2023/03/22 22:22:04;;;;;;;8.23;6.60;;;;;;;10.97;100.00;100122.72;10374654;28;20069;-72
2023/03/22 22:27:04;;;;;;;13.88;6.68;;;;;;;11.02;100.00;100150.00;10374033;28;20057;-73
2023/03/22 22:32:06;;;;;;;6.78;5.40;;;;;;;11.06;100.00;100148.50;10374844;28;20592;-71
2023/03/22 22:37:07;;;;;;;7.68;6.55;;;;;;;11.07;100.00;100150.16;10374295;28;20458;-73
2023/03/22 22:42:07;;;;;;;14.32;6.43;;;;;;;11.14;100.00;100137.41;10389450;28;20045;-71
2023/03/22 22:47:08;;;;;;;7.55;4.05;;;;;;;11.16;100.00;100136.13;10376974;28;20180;-71
2023/03/22 22:52:08;;;;;;;4.95;4.53;;;;;;;11.27;100.00;100142.72;10375437;28;20450;-71
2023/03/22 22:57:09;;;;;;;8.70;5.20;;;;;;;11.38;100.00;100128.44;10356350;28;20037;-71